Time;durP1;ratioP1;P1;durP2;ratioP2;P2;SDS_P1;SDS_P2;PMS_P1;PMS_P2;Temp;Humidity;BMP_temperature;BMP_pressure;BME280_temperature;BME280_humidity;BME280_pressure;Samples;Min_cycle;Max_cycle;Signal;HPM_P1;HPM_P2
2022/12/21 00:00:50;;;;;;;41.28;30.30;;;;;;;5.09;100.00;100105.34;4970510;28;20214;-76
2022/12/21 00:03:17;;;;;;;41.50;31.70;;;;;;;5.08;100.00;100092.88;4998788;28;20290;-76
2022/12/21 00:05:45;;;;;;;36.88;30.20;;;;;;;5.07;100.00;100091.16;5000456;28;20203;-75
2022/12/21 00:08:11;;;;;;;36.55;29.63;;;;;;;5.08;100.00;100084.88;5000925;28;20309;-74
2022/12/21 00:10:38;;;;;;;37.90;28.33;;;;;;;5.12;100.00;100081.22;5000725;28;20293;-74
2022/12/21 00:13:04;;;;;;;34.17;26.58;;;;;;;5.15;100.00;100088.25;5001295;28;20199;-75
2022/12/21 00:15:31;;;;;;;38.05;28.30;;;;;;;5.15;100.00;100085.59;5001270;28;20230;-75
2022/12/21 00:17:58;;;;;;;36.10;28.05;;;;;;;5.14;100.00;100082.03;5002685;28;20241;-75
2022/12/21 00:20:24;;;;;;;30.60;24.75;;;;;;;5.16;100.00;100090.03;5006299;28;20267;-74
2022/12/21 00:22:53;;;;;;;32.05;25.17;;;;;;;5.15;100.00;100091.78;5004929;28;20223;-75
2022/12/21 00:25:19;;;;;;;35.72;28.05;;;;;;;5.16;100.00;100085.56;5001272;28;20241;-73
2022/12/21 00:27:46;;;;;;;30.40;26.05;;;;;;;5.17;100.00;100081.06;5001520;28;20231;-75
2022/12/21 00:30:12;;;;;;;35.97;27.92;;;;;;;5.17;100.00;100086.41;5001278;28;20209;-73
2022/12/21 00:32:39;;;;;;;36.80;29.40;;;;;;;5.17;100.00;100070.41;5000788;28;20290;-75
2022/12/21 00:35:06;;;;;;;35.03;28.02;;;;;;;5.17;100.00;100078.41;5001118;28;20207;-74
2022/12/21 00:37:33;;;;;;;36.53;27.27;;;;;;;5.17;100.00;100075.75;5000822;28;20235;-75
2022/12/21 00:40:01;;;;;;;82.35;53.05;;;;;;;5.13;100.00;100074.97;5000917;28;20270;-74
2022/12/21 00:42:27;;;;;;;36.20;28.98;;;;;;;5.14;100.00;100073.16;5000904;28;20572;-74
2022/12/21 00:44:54;;;;;;;39.92;29.92;;;;;;;5.17;100.00;100079.28;5000444;28;20209;-75
2022/12/21 00:47:20;;;;;;;41.97;30.15;;;;;;;5.17;100.00;100076.59;5001129;28;20311;-74
2022/12/21 00:49:47;;;;;;;34.33;26.63;;;;;;;5.18;100.00;100073.03;5003831;28;20271;-75
2022/12/21 00:52:13;;;;;;;33.60;26.17;;;;;;;5.19;100.00;100071.22;5004515;28;20227;-74
2022/12/21 00:54:40;;;;;;;31.77;25.45;;;;;;;5.25;100.00;100071.06;5005209;28;20207;-74
2022/12/21 00:57:08;;;;;;;34.80;26.85;;;;;;;5.17;100.00;100079.28;5004701;28;20230;-74
2022/12/21 00:59:34;;;;;;;33.38;25.77;;;;;;;5.15;100.00;100074.91;5002084;28;20199;-73
2022/12/21 01:02:01;;;;;;;36.47;28.25;;;;;;;5.06;100.00;100076.03;5001422;28;20195;-75
2022/12/21 01:04:27;;;;;;;35.35;28.48;;;;;;;5.03;100.00;100073.47;5001382;28;20241;-75
2022/12/21 01:06:54;;;;;;;36.67;28.65;;;;;;;5.13;100.00;100074.06;5000365;28;20219;-74
2022/12/21 01:09:21;;;;;;;36.42;29.65;;;;;;;5.16;100.00;100072.19;4999878;28;20203;-75
2022/12/21 01:11:47;;;;;;;38.20;29.45;;;;;;;5.15;100.00;100066.91;4999923;28;20271;-73
2022/12/21 01:14:15;;;;;;;41.95;29.38;;;;;;;5.19;100.00;100064.09;4999762;28;20203;-75
2022/12/21 01:16:41;;;;;;;40.60;32.22;;;;;;;5.18;100.00;100073.03;5000262;28;20230;-74
2022/12/21 01:19:08;;;;;;;37.65;28.40;;;;;;;5.20;100.00;100065.84;4999369;28;20234;-74
2022/12/21 01:21:35;;;;;;;36.47;28.70;;;;;;;5.25;100.00;100070.19;5000544;28;20673;-74
2022/12/21 01:24:02;;;;;;;34.55;27.17;;;;;;;5.25;100.00;100070.19;4999985;28;20199;-76
2022/12/21 01:26:29;;;;;;;36.80;27.83;;;;;;;5.25;100.00;100073.75;5000260;28;20709;-74
2022/12/21 01:28:56;;;;;;;35.10;27.90;;;;;;;5.26;100.00;100070.13;4998962;28;20199;-73
2022/12/21 01:31:24;;;;;;;33.55;27.13;;;;;;;5.25;100.00;100072.88;5002303;28;20757;-74
2022/12/21 01:33:51;;;;;;;36.17;28.20;;;;;;;5.27;100.00;100071.91;5001061;28;20196;-74
2022/12/21 01:36:18;;;;;;;30.25;24.92;;;;;;;5.21;100.00;100086.28;5009382;28;20247;-76
2022/12/21 01:38:46;;;;;;;32.70;27.05;;;;;;;5.22;100.00;100088.06;5001714;28;20574;-74
2022/12/21 01:41:14;;;;;;;39.70;28.33;;;;;;;5.21;100.00;100083.63;5008502;28;20201;-74
2022/12/21 01:43:44;;;;;;;30.55;25.73;;;;;;;5.21;100.00;100083.63;5016135;28;20214;-73
2022/12/21 01:46:14;;;;;;;35.05;25.38;;;;;;;5.23;100.00;100089.78;5013098;28;20227;-74
2022/12/21 01:48:46;;;;;;;32.80;26.45;;;;;;;5.18;100.00;100082.84;5000010;28;20577;-76
2022/12/21 01:51:14;;;;;;;31.52;24.33;;;;;;;5.16;100.00;100084.69;4999860;28;20274;-75
2022/12/21 01:53:45;;;;;;;32.03;25.90;;;;;;;5.20;100.00;100080.97;5000707;28;20206;-74
2022/12/21 01:56:14;;;;;;;32.40;25.80;;;;;;;5.24;100.00;100077.31;5000728;28;20199;-75
2022/12/21 01:58:41;;;;;;;32.78;25.90;;;;;;;5.23;100.00;100070.22;5000758;28;20215;-76
2022/12/21 02:01:08;;;;;;;33.00;25.95;;;;;;;5.23;100.00;100064.88;5000585;28;20681;-73
2022/12/21 02:03:40;;;;;;;36.35;28.58;;;;;;;5.19;100.00;100068.56;4999067;28;20573;-75
2022/12/21 02:06:11;;;;;;;36.13;28.85;;;;;;;5.24;100.00;100066.63;4999795;28;20192;-75
2022/12/21 02:08:38;;;;;;;35.22;27.17;;;;;;;5.25;100.00;100063.06;5003225;28;20278;-73
2022/12/21 02:11:06;;;;;;;35.72;27.20;;;;;;;5.28;100.00;100062.97;5014955;28;20309;-72
2022/12/21 02:13:33;;;;;;;34.22;26.70;;;;;;;5.30;100.00;100055.78;5013654;28;20207;-73
2022/12/21 02:16:16;;;;;;;36.30;26.80;;;;;;;5.36;100.00;100062.72;5013894;28;20294;-72
2022/12/21 02:18:59;;;;;;;31.88;26.08;;;;;;;5.36;100.00;100054.72;5012488;28;20278;-73
2022/12/21 02:21:28;;;;;;;32.70;25.48;;;;;;;5.39;100.00;100062.66;5005155;28;20213;-73
2022/12/21 02:24:23;;;;;;;31.25;24.77;;;;;;;5.36;100.00;100060.94;5015966;28;20230;-74
2022/12/21 02:27:20;;;;;;;30.75;24.38;;;;;;;5.35;100.00;100055.66;5010292;28;20243;-73
2022/12/21 02:30:05;;;;;;;31.25;24.17;;;;;;;5.35;100.00;100051.16;4998396;28;20199;-75
2022/12/21 02:32:50;;;;;;;36.20;24.75;;;;;;;5.40;100.00;100054.59;5004818;28;20197;-75
2022/12/21 02:35:28;;;;;;;34.97;26.58;;;;;;;5.47;100.00;100052.59;5002748;28;20278;-75
2022/12/21 02:38:03;;;;;;;31.25;23.90;;;;;;;5.82;100.00;100042.63;5011983;28;20222;-73
2022/12/21 02:40:37;;;;;;;36.55;26.85;;;;;;;5.78;100.00;100043.66;5006415;28;20195;-75
2022/12/21 02:46:03;;;;;;;33.15;23.40;;;;;;;6.20;100.00;100043.25;4997331;28;20206;-74
2022/12/21 02:48:35;;;;;;;37.03;24.02;;;;;;;6.68;100.00;100056.72;4997721;28;20195;-75
2022/12/21 02:51:06;;;;;;;34.83;24.60;;;;;;;6.69;100.00;100060.28;4998709;28;20663;-74
2022/12/21 02:53:36;;;;;;;34.42;22.92;;;;;;;6.83;100.00;100052.66;4998532;28;20203;-74
2022/12/21 02:56:03;;;;;;;35.65;25.40;;;;;;;7.04;100.00;100050.13;4997744;28;20200;-75
2022/12/21 02:58:30;;;;;;;31.15;23.40;;;;;;;7.18;100.00;100047.81;4996657;28;20204;-74
2022/12/21 03:01:12;;;;;;;36.33;26.73;;;;;;;7.30;100.00;100042.00;4998567;28;20210;-74
2022/12/21 03:04:08;;;;;;;35.08;25.00;;;;;;;7.61;100.00;100048.88;4999020;28;20194;-75
2022/12/21 03:06:52;;;;;;;40.85;25.15;;;;;;;7.72;100.00;100033.25;4995844;28;20314;-73
2022/12/21 03:09:34;;;;;;;35.45;25.95;;;;;;;7.75;100.00;100031.38;4997897;28;20210;-74
2022/12/21 03:12:08;;;;;;;39.78;27.75;;;;;;;7.86;100.00;100032.69;4998155;28;20187;-73
2022/12/21 03:14:44;;;;;;;36.58;25.75;;;;;;;7.94;100.00;100022.53;4998118;28;20198;-76
2022/12/21 03:17:22;;;;;;;36.50;26.13;;;;;;;7.96;100.00;100035.00;4997562;28;20223;-73
2022/12/21 03:19:56;;;;;;;42.80;27.38;;;;;;;8.05;100.00;100021.22;4997690;28;20234;-73
2022/12/21 03:22:31;;;;;;;41.42;28.35;;;;;;;8.10;100.00;100027.28;4999238;28;20561;-75
2022/12/21 03:25:05;;;;;;;39.08;26.80;;;;;;;8.15;100.00;100025.28;5004600;28;20209;-74
2022/12/21 03:27:37;;;;;;;40.67;28.25;;;;;;;8.12;100.00;100020.91;4997655;28;20214;-74
2022/12/21 03:30:08;;;;;;;42.40;28.70;;;;;;;8.14;100.00;100016.34;4997360;28;20217;-73
2022/12/21 03:32:40;;;;;;;43.65;28.10;;;;;;;8.25;100.00;100013.19;4996866;28;20201;-74
2022/12/21 03:35:17;;;;;;;40.10;28.80;;;;;;;8.21;100.00;100010.72;4998059;28;20242;-75
2022/12/21 03:37:45;;;;;;;42.30;29.80;;;;;;;8.24;100.00;100015.97;4997472;28;20330;-75
2022/12/21 03:40:16;;;;;;;38.25;25.98;;;;;;;8.34;100.00;100018.22;5001870;28;20665;-75
2022/12/21 03:42:48;;;;;;;43.03;28.02;;;;;;;8.37;100.00;100003.78;5002317;28;20206;-72
2022/12/21 03:45:21;;;;;;;38.28;26.02;;;;;;;8.37;100.00;100001.09;5001865;28;20282;-73
2022/12/21 03:47:54;;;;;;;49.00;31.27;;;;;;;8.37;100.00;99995.75;5000550;28;20253;-74
2022/12/21 03:50:25;;;;;;;41.05;27.95;;;;;;;8.39;100.00;99996.56;5001936;28;20188;-73
2022/12/21 03:52:57;;;;;;;43.67;30.25;;;;;;;8.40;100.00;99992.94;5001708;28;20278;-75
2022/12/21 03:55:28;;;;;;;44.15;30.73;;;;;;;8.42;100.00;99988.38;5000864;28;20199;-74
2022/12/21 03:57:56;;;;;;;46.05;29.15;;;;;;;8.46;100.00;99984.63;4989138;28;20580;-76
2022/12/21 04:00:23;;;;;;;43.65;28.27;;;;;;;8.46;100.00;99981.97;4982690;28;20208;-75
2022/12/21 04:02:56;;;;;;;44.58;29.60;;;;;;;8.46;100.00;99981.09;4982652;28;20642;-74
2022/12/21 04:05:30;;;;;;;45.95;30.48;;;;;;;8.46;100.00;99986.47;4983437;28;20188;-73
2022/12/21 04:07:57;;;;;;;38.22;27.40;;;;;;;8.50;100.00;99990.72;4982709;28;20235;-75
2022/12/21 04:10:25;;;;;;;50.78;32.05;;;;;;;8.50;100.00;99997.00;4994487;28;20302;-74
2022/12/21 04:12:51;;;;;;;44.05;27.00;;;;;;;8.52;100.00;99986.16;5001205;28;20195;-75
2022/12/21 04:15:20;;;;;;;45.73;31.97;;;;;;;8.47;100.00;99989.06;5001668;28;20202;-74
2022/12/21 04:17:49;;;;;;;46.90;31.35;;;;;;;8.49;100.00;99995.22;5001008;28;20772;-72
2022/12/21 04:20:17;;;;;;;46.00;28.75;;;;;;;8.53;100.00;100001.34;5002929;28;20203;-75
2022/12/21 04:28:22;;;;;;;47.00;31.58;;;;;;;8.56;100.00;99998.53;4988613;28;20601;-73
2022/12/21 04:30:49;;;;;;;45.33;28.08;;;;;;;8.54;100.00;99995.91;5009289;28;20214;-75
2022/12/21 04:33:17;;;;;;;43.33;29.15;;;;;;;8.55;100.00;99988.75;5012746;28;20217;-76
2022/12/21 04:38:28;;;;;;;45.78;29.02;;;;;;;8.46;100.00;99986.47;5002510;28;20203;-75
2022/12/21 04:40:55;;;;;;;47.65;29.90;;;;;;;8.50;100.00;99990.72;5008117;28;20208;-75
2022/12/21 04:43:23;;;;;;;41.65;27.58;;;;;;;8.55;100.00;99997.66;5019129;28;20219;-75
2022/12/21 04:45:50;;;;;;;47.28;29.42;;;;;;;8.56;100.00;99994.03;5006193;28;20290;-75
2022/12/21 04:48:17;;;;;;;49.90;30.80;;;;;;;8.56;100.00;99993.16;5000999;28;20219;-76
2022/12/21 04:50:44;;;;;;;43.20;29.92;;;;;;;8.57;100.00;99989.56;5000722;28;20199;-74
2022/12/21 04:53:10;;;;;;;35.10;23.73;;;;;;;8.56;100.00;99996.69;5001417;28;20204;-75
2022/12/21 04:55:38;;;;;;;43.17;29.77;;;;;;;8.55;100.00;100004.84;5000766;28;20275;-76
2022/12/21 04:58:05;;;;;;;46.05;30.30;;;;;;;8.55;100.00;100007.53;5055078;22;20316;-78
2022/12/21 05:00:32;;;;;;;40.80;27.88;;;;;;;8.54;100.00;100006.63;5071215;28;20208;-73
2022/12/21 05:02:58;;;;;;;39.45;29.30;;;;;;;8.52;100.00;100005.84;5068893;28;20655;-73
2022/12/21 05:05:25;;;;;;;52.08;28.20;;;;;;;8.55;100.00;100002.16;5069503;28;20236;-75
2022/12/21 05:07:52;;;;;;;43.58;29.58;;;;;;;8.56;100.00;100006.56;5066586;28;20221;-73
2022/12/21 05:10:18;;;;;;;42.55;29.27;;;;;;;8.57;100.00;100000.28;5069217;28;20208;-74
2022/12/21 05:12:46;;;;;;;43.60;29.95;;;;;;;8.56;100.00;99999.38;5070174;28;20693;-75
2022/12/21 05:15:13;;;;;;;48.60;29.85;;;;;;;8.61;100.00;99990.28;5069828;28;20208;-74
2022/12/21 05:17:40;;;;;;;41.35;27.92;;;;;;;8.60;100.00;99991.22;5066430;28;20233;-73
2022/12/21 05:20:07;;;;;;;49.95;29.08;;;;;;;8.54;100.00;99990.53;5065876;28;20209;-73
2022/12/21 05:22:34;;;;;;;41.17;28.73;;;;;;;8.58;100.00;99987.72;5065590;28;20198;-73
2022/12/21 05:25:00;;;;;;;37.47;27.50;;;;;;;8.55;100.00;99980.69;5066470;28;20201;-73
2022/12/21 05:27:27;;;;;;;41.03;25.73;;;;;;;8.65;100.00;99998.13;5067534;28;20244;-74
2022/12/21 05:29:55;;;;;;;38.95;25.90;;;;;;;8.60;100.00;99989.41;5070549;28;20269;-73
2022/12/21 05:32:22;;;;;;;45.75;27.63;;;;;;;8.63;100.00;99991.06;5070104;28;20269;-75
2022/12/21 05:34:48;;;;;;;43.53;26.45;;;;;;;8.62;100.00;99984.84;5070077;28;20213;-72
2022/12/21 05:37:15;;;;;;;39.88;27.35;;;;;;;8.61;100.00;99992.94;5065588;28;20289;-74
2022/12/21 05:39:41;;;;;;;38.63;26.40;;;;;;;8.65;100.00;99994.56;5064333;28;20233;-74
2022/12/21 05:42:09;;;;;;;47.95;30.88;;;;;;;8.62;100.00;99992.03;5068494;28;20735;-74
2022/12/21 05:44:35;;;;;;;41.33;25.85;;;;;;;8.66;100.00;99991.81;5072340;28;20206;-75
2022/12/21 05:47:03;;;;;;;45.30;27.38;;;;;;;8.62;100.00;99986.66;5070712;28;20248;-75
2022/12/21 05:49:30;;;;;;;43.95;27.30;;;;;;;8.64;100.00;99991.03;5071728;28;20260;-74
2022/12/21 05:51:56;;;;;;;45.25;26.88;;;;;;;8.62;100.00;99986.66;5072571;28;20225;-74
2022/12/21 05:54:23;;;;;;;39.53;27.08;;;;;;;8.66;100.00;99983.78;5071801;28;20208;-74
2022/12/21 05:56:50;;;;;;;38.88;26.27;;;;;;;8.67;100.00;99979.28;5069383;28;20251;-73
2022/12/21 05:59:16;;;;;;;35.60;25.15;;;;;;;8.66;100.00;99981.09;5060771;28;20240;-76
2022/12/21 06:01:43;;;;;;;37.80;26.23;;;;;;;8.68;100.00;99972.94;5058744;28;20237;-75
2022/12/21 06:04:11;;;;;;;38.47;25.13;;;;;;;8.73;100.00;99965.59;5057313;28;20204;-75
2022/12/21 06:06:39;;;;;;;42.92;26.77;;;;;;;8.74;100.00;99968.19;5057260;28;20201;-75
2022/12/21 06:09:05;;;;;;;38.33;25.20;;;;;;;8.74;100.00;99961.94;5055651;28;20219;-74
2022/12/21 06:11:33;;;;;;;33.30;24.67;;;;;;;8.76;100.00;99955.56;5055399;28;20284;-75
2022/12/21 06:13:59;;;;;;;35.30;22.20;;;;;;;8.84;100.00;99963.28;5055616;28;20650;-76
2022/12/21 06:16:28;;;;;;;32.10;24.02;;;;;;;8.87;100.00;99973.00;5059570;28;20201;-74
2022/12/21 06:18:55;;;;;;;36.70;24.75;;;;;;;8.85;100.00;99975.75;5063926;28;20702;-75
2022/12/21 06:21:23;;;;;;;36.10;24.08;;;;;;;8.88;100.00;99978.28;5063781;28;20207;-75
2022/12/21 06:23:50;;;;;;;39.53;25.42;;;;;;;8.88;100.00;99975.63;5063643;28;20659;-73
2022/12/21 06:26:18;;;;;;;34.15;24.42;;;;;;;8.91;100.00;99975.50;5062618;28;20231;-75
2022/12/21 06:28:47;;;;;;;40.53;23.63;;;;;;;8.91;100.00;99975.50;5058668;28;20312;-76
2022/12/21 06:31:14;;;;;;;40.28;26.20;;;;;;;8.89;100.00;99972.00;5057598;28;20198;-75
2022/12/21 06:33:41;;;;;;;37.63;26.52;;;;;;;8.88;100.00;99977.44;5057219;28;20255;-76
2022/12/21 06:36:09;;;;;;;37.03;25.25;;;;;;;8.85;100.00;99978.44;5059638;28;20264;-77
2022/12/21 06:38:38;;;;;;;40.17;26.55;;;;;;;8.87;100.00;99990.00;5057089;28;20606;-77
2022/12/21 06:41:05;;;;;;;37.10;25.52;;;;;;;8.85;100.00;99981.13;5056485;28;20204;-76
2022/12/21 06:43:33;;;;;;;38.38;27.13;;;;;;;8.84;100.00;99989.25;5057771;28;20568;-75
2022/12/21 06:46:04;;;;;;;38.80;24.50;;;;;;;8.82;100.00;99993.81;5057614;28;20212;-75
2022/12/21 06:48:32;;;;;;;38.63;26.33;;;;;;;8.87;100.00;99994.50;5058322;28;20228;-75
2022/12/21 06:51:00;;;;;;;39.47;27.27;;;;;;;8.85;100.00;99997.25;5058174;28;20203;-75
2022/12/21 06:53:29;;;;;;;36.72;25.67;;;;;;;8.88;100.00;100004.28;5058309;28;20231;-74
2022/12/21 06:56:00;;;;;;;39.28;25.58;;;;;;;8.86;100.00;99993.59;5057426;28;20666;-76
2022/12/21 06:58:27;;;;;;;37.05;26.70;;;;;;;8.86;100.00;100001.66;5064155;28;20235;-75
2022/12/21 07:00:54;;;;;;;41.05;26.17;;;;;;;8.89;100.00;100006.91;5061371;28;20211;-75
2022/12/21 07:03:21;;;;;;;38.85;25.85;;;;;;;8.89;100.00;100004.22;5061544;28;20227;-75
2022/12/21 07:05:49;;;;;;;41.13;26.52;;;;;;;8.90;100.00;99999.72;5061270;28;20299;-75
2022/12/21 07:08:16;;;;;;;39.75;26.08;;;;;;;8.89;100.00;99998.84;5061959;28;20670;-77
2022/12/21 07:10:42;;;;;;;39.97;27.23;;;;;;;8.93;100.00;100004.94;5060521;28;20568;-76
2022/12/21 07:13:10;;;;;;;42.13;27.88;;;;;;;8.94;100.00;99996.81;5060610;28;20232;-74
2022/12/21 07:15:37;;;;;;;44.78;27.60;;;;;;;8.94;100.00;100017.44;5060017;28;20264;-74
2022/12/21 07:18:03;;;;;;;45.35;28.95;;;;;;;9.00;100.00;100013.59;5059918;28;20279;-75
2022/12/21 07:20:30;;;;;;;40.35;25.33;;;;;;;9.03;100.00;100010.78;5057792;28;20212;-76
2022/12/21 07:22:56;;;;;;;39.20;24.77;;;;;;;9.08;100.00;100006.06;5057930;28;20205;-75
2022/12/21 07:25:23;;;;;;;38.55;27.27;;;;;;;9.07;100.00;100002.53;5058717;28;20604;-75
2022/12/21 07:27:50;;;;;;;40.20;27.15;;;;;;;9.07;100.00;100020.47;5056026;28;20271;-76
2022/12/21 07:30:18;;;;;;;37.85;24.90;;;;;;;9.08;100.00;100023.06;5055920;28;20279;-73
2022/12/21 07:32:45;;;;;;;39.33;26.15;;;;;;;9.09;100.00;100021.25;5056054;28;20667;-77
2022/12/21 07:35:12;;;;;;;41.08;26.25;;;;;;;9.11;100.00;100014.88;5058544;28;20213;-75
2022/12/21 07:37:38;;;;;;;34.50;22.75;;;;;;;9.12;100.00;100015.75;5056754;28;20228;-75
2022/12/21 07:40:06;;;;;;;41.22;24.08;;;;;;;9.12;100.00;100002.31;5057853;28;20221;-77
2022/12/21 07:42:32;;;;;;;44.42;27.48;;;;;;;9.12;100.00;100010.38;5057283;28;20739;-75
2022/12/21 07:44:59;;;;;;;36.40;23.83;;;;;;;9.11;100.00;100016.66;5057766;28;20202;-73
2022/12/21 07:47:27;;;;;;;41.03;25.85;;;;;;;9.12;100.00;100011.25;5058326;28;20778;-75
2022/12/21 07:49:53;;;;;;;35.63;24.13;;;;;;;9.12;100.00;100015.75;5060321;28;20208;-75
2022/12/21 07:52:20;;;;;;;41.85;26.83;;;;;;;9.16;100.00;100028.09;5063560;28;20197;-75
2022/12/21 07:54:46;;;;;;;39.70;25.95;;;;;;;9.17;100.00;100027.16;5064521;28;20236;-74
2022/12/21 07:57:13;;;;;;;40.08;22.42;;;;;;;9.21;100.00;100020.69;5063067;28;20233;-75
2022/12/21 07:59:39;;;;;;;44.15;26.42;;;;;;;9.22;100.00;100033.19;5062626;28;20217;-72
2022/12/21 08:02:06;;;;;;;45.25;28.52;;;;;;;9.22;100.00;100035.88;5062057;28;20295;-75
2022/12/21 08:04:34;;;;;;;38.90;25.73;;;;;;;9.26;100.00;100033.91;5060340;28;20205;-74
2022/12/21 08:07:00;;;;;;;39.28;25.70;;;;;;;9.24;100.00;100041.19;5060530;28;20221;-76
2022/12/21 08:09:27;;;;;;;40.35;26.52;;;;;;;9.28;100.00;100043.66;5059318;28;20284;-75
2022/12/21 08:11:53;;;;;;;35.85;24.40;;;;;;;9.33;100.00;100040.75;5059235;28;20237;-73
2022/12/21 08:14:20;;;;;;;32.92;22.73;;;;;;;9.35;100.00;100039.72;5058568;28;20205;-72
2022/12/21 08:16:47;;;;;;;33.15;22.90;;;;;;;9.33;100.00;100038.06;5058684;28;20328;-74
2022/12/21 08:19:13;;;;;;;33.53;21.05;;;;;;;9.39;100.00;100038.66;5061946;28;20252;-73
2022/12/21 08:21:41;;;;;;;33.70;22.25;;;;;;;9.43;100.00;100038.50;5070856;28;20252;-73
2022/12/21 08:24:08;;;;;;;31.20;23.08;;;;;;;9.42;100.00;100034.94;5071407;28;20288;-74
2022/12/21 08:26:35;;;;;;;28.42;19.50;;;;;;;9.44;100.00;100042.97;5072739;28;20198;-74
2022/12/21 08:29:01;;;;;;;29.52;19.90;;;;;;;9.49;100.00;100036.41;5073497;28;20256;-74
2022/12/21 08:31:29;;;;;;;29.20;20.83;;;;;;;9.46;100.00;100036.56;5070743;28;20628;-74
2022/12/21 08:33:55;;;;;;;29.70;20.02;;;;;;;9.48;100.00;100041.88;5067642;28;20288;-74
2022/12/21 08:36:24;;;;;;;28.92;19.52;;;;;;;9.50;100.00;100037.31;5067073;28;20212;-74
2022/12/21 08:38:53;;;;;;;26.33;18.58;;;;;;;9.51;100.00;100037.22;5066085;28;20294;-75
2022/12/21 08:41:19;;;;;;;25.55;18.15;;;;;;;9.52;100.00;100038.06;5067099;28;20225;-75
2022/12/21 08:43:46;;;;;;;25.92;18.85;;;;;;;9.52;100.00;100035.38;5069227;28;20213;-75
2022/12/21 08:46:13;;;;;;;26.10;17.00;;;;;;;9.51;100.00;100033.66;5069219;28;20204;-74
2022/12/21 08:48:40;;;;;;;23.73;16.92;;;;;;;9.52;100.00;100030.00;5067159;28;20256;-75
2022/12/21 08:51:08;;;;;;;23.40;16.10;;;;;;;9.56;100.00;100031.63;5068208;28;20209;-75
2022/12/21 08:53:35;;;;;;;27.33;18.15;;;;;;;9.61;100.00;100029.59;5066505;28;20276;-74
2022/12/21 08:56:04;;;;;;;28.48;17.90;;;;;;;9.59;100.00;100036.88;5066572;28;20228;-76
2022/12/21 08:58:32;;;;;;;27.13;15.63;;;;;;;9.59;100.00;100035.03;5066523;28;20260;-75
2022/12/21 09:00:58;;;;;;;23.45;16.92;;;;;;;9.62;100.00;100031.34;5066901;28;20198;-75
2022/12/21 09:03:26;;;;;;;21.38;14.80;;;;;;;9.67;100.00;100037.34;5066929;28;20235;-76
2022/12/21 09:05:54;;;;;;;20.98;14.70;;;;;;;9.69;100.00;100030.09;5068297;28;20272;-74
2022/12/21 09:08:21;;;;;;;23.13;16.30;;;;;;;9.71;100.00;100030.91;5068167;28;20619;-74
2022/12/21 09:10:48;;;;;;;21.88;14.25;;;;;;;9.81;100.00;100042.97;5066972;28;20689;-75
2022/12/21 09:13:16;;;;;;;20.42;13.57;;;;;;;9.81;100.00;100048.34;5067185;28;20201;-74
2022/12/21 09:15:43;;;;;;;18.55;13.77;;;;;;;9.79;100.00;100050.25;5066614;28;20285;-74
2022/12/21 09:18:10;;;;;;;19.55;13.13;;;;;;;9.84;100.00;100049.16;5065673;28;20233;-75
2022/12/21 09:20:37;;;;;;;20.73;12.13;;;;;;;9.86;100.00;100039.16;5067666;28;20275;-74
2022/12/21 09:23:04;;;;;;;21.08;13.00;;;;;;;9.88;100.00;100039.97;5067884;28;20197;-76
2022/12/21 09:25:31;;;;;;;19.02;13.23;;;;;;;9.85;100.00;100041.00;5069015;28;20197;-77
2022/12/21 09:28:00;;;;;;;20.63;14.07;;;;;;;9.87;100.00;100040.94;5066565;28;20225;-73
2022/12/21 09:30:28;;;;;;;15.80;11.55;;;;;;;9.86;100.00;100042.75;5067183;28;20205;-75
2022/12/21 09:32:55;;;;;;;20.02;12.55;;;;;;;9.91;100.00;100053.28;5067187;28;20207;-74
2022/12/21 09:35:21;;;;;;;16.83;12.60;;;;;;;9.90;100.00;100049.69;5065595;28;20205;-74
2022/12/21 09:37:48;;;;;;;18.63;12.40;;;;;;;9.96;100.00;100056.63;5063140;28;20273;-73
2022/12/21 09:40:16;;;;;;;18.98;12.00;;;;;;;10.04;100.00;100057.13;5063817;28;20240;-73
2022/12/21 09:42:57;;;;;;;18.00;11.32;;;;;;;10.03;100.00;100058.06;5064891;28;20228;-72
2022/12/21 09:45:35;;;;;;;16.60;11.55;;;;;;;10.07;100.00;100061.47;5064942;28;20236;-74
2022/12/21 09:48:05;;;;;;;15.80;11.77;;;;;;;10.07;100.00;100065.03;5065718;28;20229;-74
2022/12/21 09:50:38;;;;;;;16.77;11.80;;;;;;;10.05;100.00;100061.56;5068226;28;20216;-73
2022/12/21 09:53:12;;;;;;;14.77;10.40;;;;;;;10.07;100.00;100061.47;5068764;28;20284;-74
2022/12/21 09:55:47;;;;;;;18.83;12.05;;;;;;;10.03;100.00;100063.44;5069108;28;20181;-74
2022/12/21 09:58:19;;;;;;;18.42;11.75;;;;;;;10.01;100.00;100071.56;5070625;28;20250;-72
2022/12/21 10:00:52;;;;;;;16.65;10.05;;;;;;;10.02;100.00;100069.78;5070203;28;20577;-74
2022/12/21 10:03:31;;;;;;;23.17;12.68;;;;;;;10.08;100.00;100072.16;5069312;28;20213;-74
2022/12/21 10:06:24;;;;;;;23.20;13.05;;;;;;;10.17;100.00;100063.63;5069258;28;20197;-74
2022/12/21 10:09:15;;;;;;;16.48;11.88;;;;;;;10.20;100.00;100065.31;5063018;28;20225;-73
2022/12/21 10:12:00;;;;;;;16.45;12.77;;;;;;;10.33;100.00;100063.78;5064161;28;20288;-75
2022/12/21 10:14:43;;;;;;;17.23;11.32;;;;;;;10.55;100.00;100074.34;5062157;28;20435;-74
2022/12/21 10:17:29;;;;;;;15.85;12.07;;;;;;;10.51;100.00;100064.69;5060892;28;20645;-75
2022/12/21 10:20:03;;;;;;;16.33;11.80;;;;;;;10.44;100.00;100064.09;5058629;28;20224;-74
2022/12/21 10:22:33;;;;;;;18.67;13.18;;;;;;;10.43;100.00;100067.75;5059028;28;20197;-73
2022/12/21 10:25:05;;;;;;;17.05;13.00;;;;;;;10.40;100.00;100065.25;5058453;28;20200;-74
2022/12/21 10:27:36;;;;;;;20.42;12.38;;;;;;;10.42;100.00;100073.22;5057135;28;20221;-74
2022/12/21 10:30:04;;;;;;;16.35;12.75;;;;;;;10.41;100.00;100071.50;5060561;28;20178;-74
2022/12/21 10:32:36;;;;;;;20.55;14.50;;;;;;;10.46;100.00;100064.03;5057205;28;20685;-76
2022/12/21 10:35:17;;;;;;;20.70;14.05;;;;;;;10.54;100.00;100060.97;5058458;28;20261;-75
2022/12/21 10:37:47;;;;;;;16.25;11.52;;;;;;;10.64;100.00;100059.56;5056793;28;20227;-75
2022/12/21 10:40:14;;;;;;;17.05;12.65;;;;;;;10.71;100.00;100054.72;5058493;28;20308;-74
2022/12/21 10:42:43;;;;;;;17.88;12.60;;;;;;;10.83;100.00;100067.53;5063680;28;20216;-75
2022/12/21 10:45:13;;;;;;;15.32;11.80;;;;;;;10.95;100.00;100072.31;5063965;28;20209;-73
2022/12/21 10:47:44;;;;;;;17.55;12.20;;;;;;;10.95;100.00;100072.31;5069547;28;20221;-75
2022/12/21 10:50:14;;;;;;;14.07;10.65;;;;;;;10.82;100.00;100071.22;5068886;28;20211;-74
2022/12/21 10:52:44;;;;;;;14.40;12.32;;;;;;;10.71;100.00;100070.88;5067882;28;20262;-74
2022/12/21 10:55:32;;;;;;;11.88;10.63;;;;;;;10.59;100.00;100070.56;5060820;28;20204;-74
2022/12/21 10:58:06;;;;;;;13.73;11.48;;;;;;;10.54;100.00;100064.53;5073833;22;20280;-74
2022/12/21 11:00:36;;;;;;;14.20;10.88;;;;;;;10.68;100.00;100069.22;5024201;28;20289;-74
2022/12/21 11:03:06;;;;;;;12.73;10.48;;;;;;;10.77;100.00;100065.19;5023751;28;20580;-72
2022/12/21 11:05:34;;;;;;;13.27;9.50;;;;;;;10.85;100.00;100071.03;5021718;28;20194;-75
2022/12/21 11:08:14;;;;;;;15.60;11.20;;;;;;;10.86;100.00;100067.41;5020035;28;20257;-75
2022/12/21 11:10:44;;;;;;;15.02;10.80;;;;;;;10.76;100.00;100061.63;5021917;28;20222;-75
2022/12/21 11:13:12;;;;;;;12.63;10.32;;;;;;;10.80;100.00;100071.28;5022683;28;20203;-75
2022/12/21 11:15:50;;;;;;;14.10;10.10;;;;;;;10.85;100.00;100061.16;5021456;28;20209;-75
2022/12/21 11:18:31;;;;;;;12.55;10.05;;;;;;;10.94;100.00;100067.00;5020055;28;20589;-74
2022/12/21 11:20:57;;;;;;;14.35;9.68;;;;;;;10.92;100.00;100053.63;5019271;28;20298;-75
2022/12/21 11:23:24;;;;;;;13.23;10.65;;;;;;;10.98;100.00;100057.81;5018601;28;20240;-75
2022/12/21 11:25:51;;;;;;;14.00;10.13;;;;;;;11.29;100.00;100046.28;5016939;28;20213;-75
2022/12/21 11:28:19;;;;;;;13.02;10.95;;;;;;;11.44;100.00;100050.84;5015043;28;20293;-75
2022/12/21 11:30:53;;;;;;;10.90;9.50;;;;;;;11.66;100.00;100045.09;5016176;28;20194;-76